Terminal Aerodrome Forecast
Issued by NWS

Home | Current Version | Previous Version | Text Only | Print | Product List | Glossary On
Versions: 1 2 3 4 5 6 7 8 9 10 11 12 13 14 15 16 17 18 19
409
FTUS43 KSGF 180751 AAA
TAFJLN
TAF AMD
KJLN 180751Z 1808/1906 16008KT P6SM SKC
     FM181400 16013G20KT P6SM FEW200
     FM181900 18019G28KT P6SM SCT250
     FM190200 18017G25KT P6SM BKN250 WS020/21050KT=

USA.gov is the U.S. government's official web portal to all federal, state and local government web resources and services.